Glecker, Texas
Current Conditions -  °F | °C
As of 1:30 PM on Thursday 18 Dec 2014 (Local Time) from K3T5 Reporting Station
Overcast Overcast  
Wind Chill: 61°   Ceiling: 1000
Heat Index: 61°   Visibility: 7mi
Dew Point: 57°   Wind: 3mph
Humidity: 86%   Direction: 20°NNE
Pressure: 30.05"   Gusts: NA
Location:  29.7125°N, 96.9231°W
Report Text: K3T5 181930Z AUTO 02003KT 7SM OVC010 16/14 A3005 RMK AO2 T01620139
Loading
Personal Weather Stations






























Interactive Weather Map New forecast layout! Learn more

10-Day Weather Forecast

Advertisements
Track Severe Weather on mobile